West Rainton, United Kingdom
Current Conditions -  °F | °C
As of 1:50 PM on Friday 24 Oct 2014 (Local Time) from EGNT Reporting Station
Scattered Clouds Scattered Clouds  
Wind Chill: 55°   Ceiling: Unl
Heat Index: 55°   Visibility: 6mi
Dew Point: 43°   Wind: 9mph
Humidity: 63%   Direction: 240°WSW
Pressure: 29.77"   Gusts: NA
Location:  54.82°N, 1.5°W
Report Text: EGNT 241250Z 24008KT 210V270 9999 SCT043 13/06 Q1008
Loading
Personal Weather Stations






























Interactive Weather Map
Tropical Storm Tracking
New forecast layout! Learn more

10-Day Weather Forecast

Advertisements
Track Severe Weather on mobile